Time;durP1;ratioP1;P1;durP2;ratioP2;P2;SDS_P1;SDS_P2;PMS_P1;PMS_P2;Temp;Humidity;BMP_temperature;BMP_pressure;BME280_temperature;BME280_humidity;BME280_pressure;Samples;Min_cycle;Max_cycle;Signal;HPM_P1;HPM_P2
2022/03/03 00:02:16;;;;;;;41.13;24.55;;;77.50;2227.20;;;;;;5079848;28;20491;-76
2022/03/03 00:04:42;;;;;;;44.47;24.85;;;77.50;2227.20;;;;;;5092183;28;20027;-76
2022/03/03 00:07:08;;;;;;;39.83;24.77;;;77.50;2227.20;;;;;;5093366;28;20040;-76
2022/03/03 00:09:37;;;;;;;40.75;22.67;;;77.40;2227.20;;;;;;5093476;28;20020;-76
2022/03/03 00:12:03;;;;;;;43.08;21.95;;;77.40;2227.20;;;;;;5076278;28;20071;-76
2022/03/03 00:14:28;;;;;;;42.55;24.20;;;77.40;2227.20;;;;;;5073380;28;20025;-76
2022/03/03 00:16:57;;;;;;;48.58;23.65;;;77.40;2227.20;;;;;;5071048;28;20029;-75
2022/03/03 00:19:23;;;;;;;42.53;22.60;;;77.30;2227.20;;;;;;5071773;28;20063;-75
2022/03/03 00:21:48;;;;;;;44.03;25.70;;;77.30;2227.20;;;;;;5066202;28;20065;-75
2022/03/03 00:24:14;;;;;;;46.10;23.65;;;77.30;2227.20;;;;;;5071641;28;20048;-76
2022/03/03 00:26:40;;;;;;;41.15;24.42;;;77.30;2227.20;;;;;;5071271;28;20387;-75
2022/03/03 00:29:06;;;;;;;41.30;23.15;;;77.30;2227.20;;;;;;5072997;28;20028;-75
2022/03/03 00:31:32;;;;;;;46.35;28.27;;;77.10;2227.20;;;;;;5072407;28;20383;-76
2022/03/03 00:33:58;;;;;;;41.40;23.83;;;77.00;2227.20;;;;;;5071580;28;20496;-76
2022/03/03 00:36:24;;;;;;;42.30;25.02;;;76.80;2227.20;;;;;;5071556;28;20040;-76
2022/03/03 00:38:50;;;;;;;43.08;25.08;;;76.80;2227.20;;;;;;5070887;28;20048;-76
2022/03/03 00:41:18;;;;;;;41.05;24.42;;;52.10;2227.20;;;;;;5070265;28;20047;-76
2022/03/03 00:43:43;;;;;;;50.45;25.70;;;52.10;2227.20;;;;;;5072577;28;20031;-75
2022/03/03 00:46:09;;;;;;;47.92;26.17;;;52.10;2227.20;;;;;;5072624;28;20025;-76
2022/03/03 00:48:35;;;;;;;47.92;26.05;;;52.00;2227.20;;;;;;5070894;28;20090;-75
2022/03/03 00:51:06;;;;;;;45.55;24.92;;;52.00;2227.20;;;;;;5070378;28;20024;-76
2022/03/03 00:53:38;;;;;;;46.03;27.38;;;51.90;2227.20;;;;;;5071137;28;20035;-75
2022/03/03 00:56:05;;;;;;;45.47;26.42;;;52.00;2227.20;;;;;;5087664;28;20056;-76
2022/03/03 00:58:33;;;;;;;43.58;26.15;;;51.90;2227.20;;;;;;5054663;28;20397;-76
2022/03/03 01:01:01;;;;;;;41.80;25.35;;;51.90;2227.20;;;;;;5060041;28;20029;-75
2022/03/03 01:03:27;;;;;;;50.63;27.05;;;52.00;2227.20;;;;;;5071350;28;20372;-75
2022/03/03 01:05:53;;;;;;;39.65;24.10;;;51.90;2227.20;;;;;;5087701;28;20028;-76
2022/03/03 01:08:22;;;;;;;43.63;24.33;;;51.90;2227.20;;;;;;5072222;28;20049;-75
2022/03/03 01:10:54;;;;;;;44.08;24.25;;;51.80;2227.20;;;;;;5071804;28;20025;-76
2022/03/03 01:13:23;;;;;;;42.22;23.83;;;51.70;2227.20;;;;;;5072037;28;20054;-75
2022/03/03 01:15:50;;;;;;;44.38;23.30;;;51.70;2227.20;;;;;;5071895;28;20032;-76
2022/03/03 01:18:16;;;;;;;41.40;25.48;;;51.60;2227.20;;;;;;5072121;28;20031;-77
2022/03/03 01:20:49;;;;;;;43.33;24.42;;;51.60;2227.20;;;;;;5071090;28;20029;-75
2022/03/03 01:23:15;;;;;;;42.30;26.65;;;51.50;2227.20;;;;;;5071717;28;20106;-75
2022/03/03 01:25:41;;;;;;;38.50;22.55;;;51.40;2227.20;;;;;;5071543;28;20100;-75
2022/03/03 01:28:15;;;;;;;45.88;23.77;;;51.40;2227.20;;;;;;5071547;28;20515;-76
2022/03/03 01:30:44;;;;;;;44.25;25.48;;;51.40;2227.20;;;;;;5071781;28;20021;-76
2022/03/03 01:33:12;;;;;;;41.47;25.10;;;51.40;2227.20;;;;;;5072035;28;20028;-76
2022/03/03 01:35:38;;;;;;;48.60;23.33;;;51.50;2227.20;;;;;;5071488;28;20024;-76
2022/03/03 01:38:04;;;;;;;38.60;22.95;;;51.50;2227.20;;;;;;5071614;28;20049;-75
2022/03/03 01:40:30;;;;;;;38.35;24.10;;;51.60;2227.20;;;;;;5057660;28;20458;-75
2022/03/03 01:42:55;;;;;;;54.38;26.80;;;51.50;2227.20;;;;;;5051348;28;20037;-76
2022/03/03 01:45:21;;;;;;;44.88;25.13;;;51.40;2227.20;;;;;;5054051;28;20487;-75
2022/03/03 01:47:47;;;;;;;48.67;27.90;;;51.40;2227.20;;;;;;5071564;28;20024;-76
2022/03/03 01:50:14;;;;;;;47.70;25.95;;;51.30;2227.20;;;;;;5069646;28;20074;-75
2022/03/03 01:52:39;;;;;;;41.35;26.42;;;51.40;2227.20;;;;;;5066829;28;20033;-76
2022/03/03 01:55:06;;;;;;;43.45;24.20;;;51.40;2227.20;;;;;;5068630;28;20481;-75
2022/03/03 01:57:32;;;;;;;48.78;24.02;;;51.40;2227.20;;;;;;5063478;28;20028;-75
2022/03/03 01:59:58;;;;;;;45.50;27.02;;;51.40;2227.20;;;;;;5064183;28;20028;-75
2022/03/03 02:02:26;;;;;;;43.83;25.23;;;51.40;2227.20;;;;;;5060045;28;20538;-75
2022/03/03 02:04:52;;;;;;;55.78;26.70;;;51.50;2227.20;;;;;;5062343;28;20039;-75
2022/03/03 02:07:18;;;;;;;48.85;24.77;;;51.50;2227.20;;;;;;5061398;28;20033;-75
2022/03/03 02:09:44;;;;;;;44.53;26.20;;;51.60;2227.20;;;;;;5063000;28;20052;-75
2022/03/03 02:12:10;;;;;;;41.95;25.98;;;51.60;2227.20;;;;;;5064092;28;20035;-75
2022/03/03 02:14:41;;;;;;;41.90;25.67;;;51.60;2227.20;;;;;;5064448;28;20033;-76
2022/03/03 02:17:07;;;;;;;44.33;24.30;;;51.50;2227.20;;;;;;5062984;28;20027;-76
2022/03/03 02:19:33;;;;;;;41.85;24.08;;;51.50;2227.20;;;;;;5063241;28;20024;-76
2022/03/03 02:21:58;;;;;;;42.28;24.83;;;51.40;2227.20;;;;;;5059458;28;20017;-75
2022/03/03 02:24:24;;;;;;;47.88;24.95;;;51.40;2227.20;;;;;;5061869;28;20021;-76
2022/03/03 02:26:50;;;;;;;45.33;25.90;;;51.40;2227.20;;;;;;5061893;28;20021;-75
2022/03/03 02:29:16;;;;;;;37.00;24.52;;;51.40;2227.20;;;;;;5058760;28;20036;-75
2022/03/03 02:31:44;;;;;;;46.65;25.10;;;51.40;2227.20;;;;;;5061223;28;20067;-76
2022/03/03 02:34:09;;;;;;;51.95;25.55;;;51.50;2227.20;;;;;;5064649;28;20491;-75
2022/03/03 02:36:35;;;;;;;46.40;24.73;;;51.50;2227.20;;;;;;5063181;28;20037;-75
2022/03/03 02:39:03;;;;;;;35.92;22.17;;;51.60;2227.20;;;;;;5062933;28;20052;-76
2022/03/03 02:41:29;;;;;;;41.38;25.23;;;51.60;2227.20;;;;;;5060101;28;20051;-75
2022/03/03 02:43:56;;;;;;;35.92;22.38;;;51.60;2227.20;;;;;;5053599;28;20496;-76
2022/03/03 02:46:23;;;;;;;44.20;22.77;;;51.50;2227.20;;;;;;5065962;28;20105;-75
2022/03/03 02:48:48;;;;;;;41.65;24.75;;;51.40;2227.20;;;;;;5075316;28;20503;-76
2022/03/03 02:51:14;;;;;;;42.35;23.17;;;51.20;2227.20;;;;;;5073053;28;20029;-75
2022/03/03 02:53:40;;;;;;;40.03;24.17;;;51.30;2227.20;;;;;;5074680;28;20104;-75
2022/03/03 02:56:07;;;;;;;41.53;23.77;;;51.40;2227.20;;;;;;5073464;28;20032;-75
2022/03/03 02:58:33;;;;;;;47.17;25.00;;;51.40;2227.20;;;;;;5074070;28;20025;-81
2022/03/03 03:01:00;;;;;;;45.80;25.35;;;51.40;2227.20;;;;;;5069872;28;20052;-75
2022/03/03 03:03:26;;;;;;;40.15;23.45;;;51.40;2227.20;;;;;;5054718;28;20393;-75
2022/03/03 03:05:51;;;;;;;42.20;25.50;;;51.60;2227.20;;;;;;5069762;28;20063;-75
2022/03/03 03:08:17;;;;;;;42.63;25.42;;;51.50;2227.20;;;;;;5053599;28;20021;-75
2022/03/03 03:10:43;;;;;;;47.75;25.70;;;51.60;2227.20;;;;;;5054932;28;20472;-76
2022/03/03 03:13:14;;;;;;;38.58;24.10;;;51.70;2227.20;;;;;;5054558;28;20049;-75
2022/03/03 03:15:44;;;;;;;40.40;24.50;;;51.60;2227.20;;;;;;5060613;28;20024;-75
2022/03/03 03:18:16;;;;;;;43.92;23.92;;;51.70;2227.20;;;;;;5072457;28;20040;-76
2022/03/03 03:20:44;;;;;;;41.92;23.40;;;51.60;2227.20;;;;;;5067601;28;20020;-75
2022/03/03 03:23:13;;;;;;;37.28;23.63;;;51.60;2227.20;;;;;;5073158;28;20028;-75
2022/03/03 03:25:43;;;;;;;42.75;25.48;;;51.40;2227.20;;;;;;5072735;28;20028;-76
2022/03/03 03:28:13;;;;;;;40.13;24.42;;;51.40;2227.20;;;;;;5074496;28;20021;-75
2022/03/03 03:30:39;;;;;;;44.13;25.10;;;51.40;2227.20;;;;;;5072033;28;20040;-75
2022/03/03 03:33:06;;;;;;;42.70;24.05;;;51.30;2227.20;;;;;;5073064;28;20477;-77
2022/03/03 03:35:32;;;;;;;40.90;25.20;;;51.20;2227.20;;;;;;5072801;28;20035;-75
2022/03/03 03:37:58;;;;;;;40.13;23.70;;;51.20;2227.20;;;;;;5073585;28;20068;-75
2022/03/03 03:40:24;;;;;;;43.95;25.13;;;26.30;2201.60;;;;;;5073859;28;20024;-76
2022/03/03 03:42:50;;;;;;;48.33;25.13;;;26.40;2201.60;;;;;;5067250;28;20107;-76
2022/03/03 03:45:16;;;;;;;43.70;25.88;;;26.40;2201.60;;;;;;5063432;28;20032;-75
2022/03/03 03:47:42;;;;;;;43.92;25.27;;;26.20;2201.60;;;;;;5065627;28;20472;-75
2022/03/03 03:50:10;;;;;;;46.30;25.27;;;26.20;2201.60;;;;;;5068350;28;20494;-76
2022/03/03 03:52:37;;;;;;;42.90;25.15;;;26.00;2201.60;;;;;;5068788;28;20115;-76
2022/03/03 03:55:05;;;;;;;40.67;24.38;;;25.90;2201.60;;;;;;5062924;28;20031;-75
2022/03/03 03:57:31;;;;;;;46.90;25.90;;;26.00;2201.60;;;;;;5086161;28;20074;-77
2022/03/03 03:59:57;;;;;;;43.70;25.85;;;26.00;2201.60;;;;;;5063630;28;20028;-76
2022/03/03 04:02:23;;;;;;;38.88;23.58;;;25.80;2201.60;;;;;;5066614;28;20020;-75
2022/03/03 04:04:49;;;;;;;41.58;26.77;;;25.80;2201.60;;;;;;5063694;28;20025;-76
2022/03/03 04:07:15;;;;;;;44.47;24.58;;;25.80;2201.60;;;;;;5068527;28;20028;-75
2022/03/03 04:09:40;;;;;;;38.17;22.65;;;25.70;2201.60;;;;;;5065726;28;20024;-75
2022/03/03 04:12:07;;;;;;;39.78;24.35;;;25.80;2201.60;;;;;;5064557;28;20460;-74
2022/03/03 04:14:36;;;;;;;46.95;25.42;;;25.80;2201.60;;;;;;5063096;28;20020;-76
2022/03/03 04:17:02;;;;;;;39.33;23.90;;;25.80;2201.60;;;;;;5073172;28;20028;-76
2022/03/03 04:19:27;;;;;;;44.80;26.38;;;25.80;2201.60;;;;;;5077307;28;20029;-76
2022/03/03 04:21:53;;;;;;;42.80;25.88;;;25.80;2201.60;;;;;;5070116;28;20032;-76
2022/03/03 04:24:22;;;;;;;38.42;24.58;;;25.80;2201.60;;;;;;5073127;28;20104;-75
2022/03/03 04:26:50;;;;;;;44.80;28.27;;;25.70;2201.60;;;;;;5073388;28;20028;-75
2022/03/03 04:29:16;;;;;;;50.13;27.35;;;25.80;2201.60;;;;;;5073033;28;20031;-76
2022/03/03 04:31:42;;;;;;;39.03;23.67;;;25.70;2201.60;;;;;;5067848;28;20021;-76
2022/03/03 04:34:08;;;;;;;45.28;26.35;;;25.70;2201.60;;;;;;5052387;28;20090;-75
2022/03/03 04:36:33;;;;;;;45.65;26.00;;;25.60;2201.60;;;;;;5067690;28;20399;-75
2022/03/03 04:38:59;;;;;;;45.05;24.13;;;0.80;2201.60;;;;;;5068560;28;20056;-75
2022/03/03 04:41:25;;;;;;;42.83;25.73;;;25.60;2201.60;;;;;;5052637;28;20104;-75
2022/03/03 04:43:50;;;;;;;42.78;24.70;;;0.90;2201.60;;;;;;5052656;28;20039;-75
2022/03/03 04:46:16;;;;;;;48.90;25.90;;;0.70;2201.60;;;;;;5070504;28;20035;-75
2022/03/03 04:48:42;;;;;;;37.97;24.52;;;0.50;2201.60;;;;;;5070752;28;20078;-75
2022/03/03 04:51:11;;;;;;;45.65;23.40;;;0.40;2201.60;;;;;;5072552;28;20074;-75
2022/03/03 04:53:36;;;;;;;51.55;26.88;;;0.40;2201.60;;;;;;5073119;28;20024;-76
2022/03/03 04:56:02;;;;;;;39.00;23.42;;;0.40;2201.60;;;;;;5072253;28;20033;-75
2022/03/03 04:58:28;;;;;;;46.70;25.05;;;0.50;2201.60;;;;;;5088309;28;20546;-75
2022/03/03 05:00:54;;;;;;;45.08;27.70;;;0.50;2201.60;;;;;;5071392;28;20108;-75
2022/03/03 05:03:20;;;;;;;39.92;25.00;;;0.50;2201.60;;;;;;5087834;28;20437;-75
2022/03/03 05:05:46;;;;;;;52.97;30.65;;;0.50;2201.60;;;;;;5072467;28;20733;-75
2022/03/03 05:08:11;;;;;;;49.38;28.25;;;0.50;2201.60;;;;;;5070629;28;20044;-75
2022/03/03 05:10:37;;;;;;;59.63;31.10;;;0.50;2201.60;;;;;;5088182;28;20432;-75
2022/03/03 05:13:03;;;;;;;60.20;32.45;;;0.60;2201.60;;;;;;5070711;28;20058;-75
2022/03/03 05:15:29;;;;;;;82.65;39.83;;;0.50;2201.60;;;;;;5072163;28;20028;-75
2022/03/03 05:17:56;;;;;;;66.18;34.85;;;0.50;2201.60;;;;;;5070834;28;20036;-76
2022/03/03 05:20:22;;;;;;;49.42;26.98;;;0.50;2201.60;;;;;;5071118;28;20152;-75
2022/03/03 05:22:53;;;;;;;50.55;25.33;;;0.60;2201.60;;;;;;5065430;28;20034;-75
2022/03/03 05:25:19;;;;;;;55.13;27.80;;;0.60;2201.60;;;;;;5060952;28;20037;-76
2022/03/03 05:27:45;;;;;;;59.28;30.88;;;0.70;2201.60;;;;;;5064839;28;20070;-75
2022/03/03 05:30:11;;;;;;;59.28;32.05;;;0.60;2201.60;;;;;;5062525;28;20064;-76
2022/03/03 05:32:40;;;;;;;69.13;34.90;;;0.50;2201.60;;;;;;5060790;28;20021;-75
2022/03/03 05:35:07;;;;;;;62.95;34.70;;;0.60;2201.60;;;;;;5061159;28;20041;-76
2022/03/03 05:37:35;;;;;;;76.63;35.33;;;0.50;2201.60;;;;;;5060854;28;20052;-75
2022/03/03 05:40:02;;;;;;;69.88;35.33;;;0.60;2201.60;;;;;;5060219;28;20037;-75
2022/03/03 05:42:35;;;;;;;63.45;33.38;;;0.60;2201.60;;;;;;5065373;28;20025;-76
2022/03/03 05:45:01;;;;;;;62.90;35.70;;;0.50;2201.60;;;;;;5062870;28;20386;-75
2022/03/03 05:47:28;;;;;;;68.88;33.72;;;0.40;2201.60;;;;;;5066749;28;20091;-75
2022/03/03 05:49:55;;;;;;;64.00;32.15;;;0.50;2201.60;;;;;;5061058;28;20017;-75
2022/03/03 05:52:21;;;;;;;52.95;31.13;;;0.40;2201.60;;;;;;5060141;28;20043;-75
2022/03/03 05:54:47;;;;;;;73.80;37.72;;;0.40;2201.60;;;;;;5064103;28;20086;-75
2022/03/03 05:57:47;;;;;;;58.30;31.63;;;0.40;2201.60;;;;;;5059299;28;20029;-75
2022/03/03 06:00:17;;;;;;;69.85;39.45;;;0.30;2201.60;;;;;;5006976;28;20062;-75
2022/03/03 06:02:53;;;;;;;68.55;32.22;;;0.40;2201.60;;;;;;4999358;28;20061;-76
2022/03/03 06:05:25;;;;;;;66.53;37.50;;;0.40;2201.60;;;;;;4973187;28;20128;-76
2022/03/03 06:08:02;;;;;;;60.50;32.97;;;0.40;2201.60;;;;;;5005760;28;20022;-75
2022/03/03 06:10:35;;;;;;;72.85;34.35;;;0.40;2201.60;;;;;;4996206;28;20038;-76
2022/03/03 06:13:21;;;;;;;69.65;35.58;;;0.40;2201.60;;;;;;5010650;28;20056;-76
2022/03/03 06:15:47;;;;;;;53.58;29.25;;;0.40;2201.60;;;;;;4998900;28;20037;-76
2022/03/03 06:18:13;;;;;;;72.13;36.67;;;0.40;2201.60;;;;;;5003573;28;20051;-76
2022/03/03 06:20:50;;;;;;;65.72;32.63;;;0.30;2201.60;;;;;;5008368;28;20045;-76
2022/03/03 06:23:15;;;;;;;74.88;37.22;;;0.40;2201.60;;;;;;5009368;28;20034;-76
2022/03/03 06:25:43;;;;;;;78.97;38.20;;;0.50;2201.60;;;;;;5008827;28;20029;-76
2022/03/03 06:28:09;;;;;;;58.67;32.42;;;0.60;2201.60;;;;;;5002819;28;20022;-77
2022/03/03 06:30:35;;;;;;;53.97;30.00;;;0.70;2201.60;;;;;;4990781;28;20050;-76
2022/03/03 06:33:02;;;;;;;53.30;31.25;;;0.70;2201.60;;;;;;5004620;28;20036;-76
2022/03/03 06:35:28;;;;;;;55.35;29.42;;;0.90;2201.60;;;;;;4988954;28;20127;-76
2022/03/03 06:37:54;;;;;;;50.30;28.35;;;25.60;2201.60;;;;;;5061849;28;20076;-76
2022/03/03 06:40:20;;;;;;;55.15;29.45;;;25.60;2201.60;;;;;;5068087;28;20037;-76
2022/03/03 06:42:45;;;;;;;53.55;28.08;;;25.70;2201.60;;;;;;5065616;28;20029;-76
2022/03/03 06:45:11;;;;;;;53.72;28.65;;;25.80;2201.60;;;;;;5060491;28;20480;-75
2022/03/03 06:47:37;;;;;;;54.10;28.73;;;25.80;2201.60;;;;;;5063720;28;20048;-76
2022/03/03 06:50:03;;;;;;;43.80;24.23;;;25.90;2201.60;;;;;;5067897;28;20078;-76
2022/03/03 06:52:33;;;;;;;51.05;26.23;;;25.90;2201.60;;;;;;5067439;28;20058;-76
2022/03/03 06:55:00;;;;;;;47.45;26.75;;;26.00;2201.60;;;;;;5065016;28;20024;-76
2022/03/03 06:57:29;;;;;;;44.10;25.20;;;26.00;2201.60;;;;;;5081620;28;20052;-76
2022/03/03 07:00:01;;;;;;;48.45;26.02;;;26.10;2201.60;;;;;;5069264;28;20096;-76
2022/03/03 07:02:27;;;;;;;39.70;23.63;;;26.30;2201.60;;;;;;5085391;28;20020;-76
2022/03/03 07:04:54;;;;;;;51.65;26.67;;;26.30;2201.60;;;;;;5064277;28;20095;-77
2022/03/03 07:07:20;;;;;;;45.97;25.02;;;26.50;2201.60;;;;;;5060927;28;20025;-76
2022/03/03 07:09:47;;;;;;;42.95;24.25;;;51.30;2227.20;;;;;;5061316;28;20035;-75
2022/03/03 07:12:16;;;;;;;41.78;24.60;;;51.50;2227.20;;;;;;5066552;28;20017;-76
2022/03/03 07:14:41;;;;;;;46.35;25.50;;;51.70;2227.20;;;;;;5064486;28;20028;-76
2022/03/03 07:17:17;;;;;;;48.05;27.40;;;51.90;2227.20;;;;;;5061834;28;20471;-76
2022/03/03 07:20:10;;;;;;;46.75;24.50;;;52.00;2227.20;;;;;;5064692;28;20572;-75
2022/03/03 07:23:10;;;;;;;45.15;23.70;;;76.90;2227.20;;;;;;5059983;28;20044;-74
2022/03/03 07:25:41;;;;;;;44.10;25.88;;;77.20;2227.20;;;;;;5065529;28;20492;-76
2022/03/03 07:28:12;;;;;;;87.07;28.42;;;77.20;2227.20;;;;;;5066370;28;20464;-76
2022/03/03 07:30:43;;;;;;;41.53;22.60;;;77.40;2227.20;;;;;;5066702;28;20829;-76
2022/03/03 07:33:48;;;;;;;39.70;22.85;;;77.60;2227.20;;;;;;5063175;28;20555;-78
2022/03/03 07:36:21;;;;;;;43.47;22.98;;;102.40;2227.20;;;;;;5070550;28;20131;-76
2022/03/03 07:39:10;;;;;;;53.42;27.33;;;102.70;2227.20;;;;;;5063135;28;20074;-76
2022/03/03 07:41:36;;;;;;;41.85;25.45;;;102.90;2227.20;;;;;;5064037;28;20024;-77
2022/03/03 07:44:06;;;;;;;44.35;24.13;;;103.10;2227.20;;;;;;5064438;28;20032;-77
2022/03/03 07:46:31;;;;;;;43.75;26.42;;;128.00;2252.80;;;;;;5066473;28;20021;-76
2022/03/03 07:48:59;;;;;;;38.35;22.23;;;128.10;2252.80;;;;;;5069670;28;20082;-76
2022/03/03 07:51:25;;;;;;;44.70;24.13;;;128.00;2252.80;;;;;;5063822;28;20154;-75
2022/03/03 07:53:51;;;;;;;40.47;24.52;;;128.20;2252.80;;;;;;5060478;28;20028;-74
2022/03/03 07:56:31;;;;;;;43.40;24.63;;;128.00;2252.80;;;;;;5055181;28;20025;-75
2022/03/03 07:59:11;;;;;;;40.08;22.70;;;128.10;2252.80;;;;;;5082952;28;20048;-74
2022/03/03 08:01:38;;;;;;;39.53;23.05;;;128.00;2252.80;;;;;;5059334;28;20033;-74
2022/03/03 08:04:04;;;;;;;40.08;24.02;;;128.00;2252.80;;;;;;5067430;28;20278;-75
2022/03/03 08:06:34;;;;;;;52.78;24.95;;;128.10;2252.80;;;;;;5071079;28;20043;-74
2022/03/03 08:09:00;;;;;;;46.65;25.35;;;128.20;2252.80;;;;;;5070309;28;20031;-74
2022/03/03 08:11:27;;;;;;;43.00;25.05;;;128.40;2252.80;;;;;;5067383;28;20078;-74
2022/03/03 08:13:56;;;;;;;41.88;26.25;;;128.50;2252.80;;;;;;5069156;28;20025;-74
2022/03/03 08:16:22;;;;;;;44.83;24.55;;;128.60;2252.80;;;;;;5069820;28;20033;-75
2022/03/03 08:18:55;;;;;;;38.70;25.65;;;128.80;2252.80;;;;;;5067707;28;20111;-75
2022/03/03 08:21:24;;;;;;;40.15;24.00;;;128.70;2252.80;;;;;;5065492;28;20499;-74
2022/03/03 08:23:50;;;;;;;39.65;24.25;;;153.60;2252.80;;;;;;5066447;28;20044;-75
2022/03/03 08:26:17;;;;;;;47.65;23.70;;;153.60;2252.80;;;;;;5064499;28;20038;-75
2022/03/03 08:28:43;;;;;;;42.22;24.92;;;153.90;2252.80;;;;;;5065473;28;20044;-75
2022/03/03 08:31:15;;;;;;;40.30;22.73;;;153.80;2252.80;;;;;;5064977;28;20468;-76
2022/03/03 08:33:54;;;;;;;41.03;23.42;;;154.00;2252.80;;;;;;5087313;28;20471;-75
2022/03/03 08:36:46;;;;;;;38.35;23.23;;;154.40;2252.80;;;;;;5062426;28;20036;-76
2022/03/03 08:39:15;;;;;;;42.72;24.50;;;179.40;2176.00;;;;;;5062399;28;20041;-74
2022/03/03 08:41:42;;;;;;;43.22;24.92;;;179.50;2150.40;;;;;;5065072;28;21669;-75
2022/03/03 08:44:09;;;;;;;33.58;20.77;;;179.60;2124.80;;;;;;5062076;28;20068;-75
2022/03/03 08:46:37;;;;;;;37.50;21.58;;;179.40;1996.80;;;;;;5067500;28;20111;-74
2022/03/03 08:49:10;;;;;;;33.67;20.67;;;179.50;1971.20;;;;;;5058954;28;20455;-75
2022/03/03 08:51:37;;;;;;;32.75;20.73;;;179.70;1945.60;;;;;;5064064;28;20036;-75
2022/03/03 08:54:04;;;;;;;40.90;22.05;;;204.80;1868.80;;;;;;5066858;28;20024;-75
2022/03/03 08:56:29;;;;;;;37.88;22.65;;;205.30;1843.20;;;;;;5064078;28;20032;-76
2022/03/03 08:58:55;;;;;;;31.08;19.58;;;205.40;1740.80;;;;;;5057697;28;20032;-75
2022/03/03 09:01:24;;;;;;;31.52;19.98;;;205.40;1740.80;;;;;;5071990;28;20024;-75
2022/03/03 09:03:50;;;;;;;39.47;20.95;;;230.50;1740.80;;;;;;5062570;28;20055;-75
2022/03/03 09:06:19;;;;;;;43.83;21.83;;;230.90;1638.40;;;;;;5059066;28;20037;-74
2022/03/03 09:08:45;;;;;;;33.97;20.70;;;230.90;1638.40;;;;;;5067493;28;20384;-74
2022/03/03 09:11:12;;;;;;;35.42;22.38;;;231.20;1612.80;;;;;;5061629;28;20078;-75
2022/03/03 09:13:38;;;;;;;33.70;19.67;;;256.10;1587.20;;;;;;5061014;28;20036;-75
2022/03/03 09:16:04;;;;;;;33.15;22.02;;;256.10;1561.60;;;;;;5066323;28;20099;-75
2022/03/03 09:18:31;;;;;;;33.33;22.30;;;256.30;1561.60;;;;;;5066636;28;20028;-74
2022/03/03 09:20:57;;;;;;;32.10;20.73;;;256.30;1561.60;;;;;;5067325;28;20027;-75
2022/03/03 09:23:23;;;;;;;39.92;22.42;;;256.50;1536.00;;;;;;5063928;28;20033;-75
2022/03/03 09:25:49;;;;;;;31.23;20.95;;;281.70;1561.60;;;;;;5068022;28;20716;-75
2022/03/03 09:28:14;;;;;;;36.47;24.20;;;282.00;1536.00;;;;;;5064863;28;20021;-74
2022/03/03 09:30:40;;;;;;;32.88;21.08;;;282.30;1510.40;;;;;;5065693;28;20024;-75
2022/03/03 09:33:06;;;;;;;33.95;22.85;;;307.40;1484.80;;;;;;5062961;28;20021;-74
2022/03/03 09:35:32;;;;;;;33.72;19.98;;;307.70;1408.00;;;;;;5061345;28;20557;-74
2022/03/03 09:37:58;;;;;;;32.50;20.17;;;307.80;1382.40;;;;;;5061267;28;20049;-75
2022/03/03 09:40:27;;;;;;;34.97;22.98;;;307.70;1356.80;;;;;;5062483;28;20033;-75
2022/03/03 09:43:07;;;;;;;28.80;19.88;;;308.00;1356.80;;;;;;5063755;28;20021;-75
2022/03/03 09:45:34;;;;;;;28.88;20.13;;;307.90;1331.20;;;;;;5064991;28;20028;-74
2022/03/03 09:48:09;;;;;;;34.78;21.92;;;307.90;1331.20;;;;;;5060751;28;20112;-74
2022/03/03 09:50:37;;;;;;;27.88;20.15;;;308.10;1305.60;;;;;;5063030;28;20017;-74
2022/03/03 09:53:11;;;;;;;30.60;21.08;;;307.90;1305.60;;;;;;5063642;28;20021;-74
2022/03/03 09:55:38;;;;;;;35.08;23.63;;;308.00;1305.60;;;;;;5062362;28;21528;-74
2022/03/03 09:58:10;;;;;;;31.42;21.13;;;307.90;1305.60;;;;;;5060677;28;20383;-74
2022/03/03 10:00:40;;;;;;;38.53;22.23;;;308.10;1305.60;;;;;;5060377;28;20071;-75
2022/03/03 10:03:19;;;;;;;34.97;21.77;;;332.80;1280.00;;;;;;5068138;28;20500;-74
2022/03/03 10:05:50;;;;;;;33.03;20.58;;;333.10;1305.60;;;;;;5061616;28;20032;-74
2022/03/03 10:08:21;;;;;;;34.53;22.08;;;358.40;1254.40;;;;;;5066514;28;20565;-74
2022/03/03 10:10:49;;;;;;;33.95;21.35;;;358.40;1254.40;;;;;;5055608;28;20395;-73
2022/03/03 10:13:17;;;;;;;32.75;22.77;;;333.00;1305.60;;;;;;5064275;28;20028;-74
2022/03/03 10:15:44;;;;;;;28.90;21.25;;;332.90;1280.00;;;;;;5060808;28;20057;-74
2022/03/03 10:18:12;;;;;;;36.28;22.75;;;332.80;1305.60;;;;;;5065379;28;20023;-74
2022/03/03 10:20:46;;;;;;;43.15;28.48;;;333.20;1280.00;;;;;;5060331;28;20037;-73
2022/03/03 10:23:12;;;;;;;39.70;26.15;;;333.70;1280.00;;;;;;5065988;28;20033;-73
2022/03/03 10:25:44;;;;;;;34.95;23.48;;;333.50;1305.60;;;;;;5061152;28;20033;-73
2022/03/03 10:28:13;;;;;;;36.00;23.30;;;359.10;1254.40;;;;;;5060291;28;20045;-75
2022/03/03 10:30:58;;;;;;;37.35;23.95;;;359.00;1254.40;;;;;;5064586;28;20082;-74
2022/03/03 10:33:26;;;;;;;33.33;22.63;;;359.30;1228.80;;;;;;5060643;28;20476;-74
2022/03/03 10:36:01;;;;;;;30.40;20.52;;;384.10;1203.20;;;;;;5063228;28;20029;-74
2022/03/03 10:38:27;;;;;;;42.20;23.52;;;384.40;1177.60;;;;;;5060070;28;20052;-74
2022/03/03 10:40:56;;;;;;;39.42;22.73;;;409.60;1177.60;;;;;;5060068;28;20029;-73
2022/03/03 10:43:22;;;;;;;35.10;23.02;;;409.70;1152.00;;;;;;5059933;28;20063;-74
2022/03/03 10:45:56;;;;;;;28.25;18.38;;;384.70;1152.00;;;;;;5065063;28;20456;-77
2022/03/03 10:48:24;;;;;;;29.35;20.52;;;384.40;1100.80;;;;;;5065808;28;20501;-75
2022/03/03 10:50:51;;;;;;;33.40;21.40;;;384.60;1152.00;;;;;;5060583;28;20016;-74
2022/03/03 10:53:24;;;;;;;28.55;21.05;;;409.60;1177.60;;;;;;5080613;28;20115;-74
2022/03/03 10:56:08;;;;;;;29.25;19.83;;;359.10;1152.00;;;;;;5067498;28;20040;-74
2022/03/03 10:58:50;;;;;;;28.13;19.20;;;409.90;1126.40;;;;;;5067665;28;20029;-74
2022/03/03 11:01:22;;;;;;;32.35;20.10;;;410.30;1126.40;;;;;;5083841;28;20040;-76
2022/03/03 11:03:53;;;;;;;27.85;19.58;;;410.30;1126.40;;;;;;5068978;28;20025;-75
2022/03/03 11:06:21;;;;;;;25.40;18.38;;;410.40;1075.20;;;;;;5068392;28;20114;-74
2022/03/03 11:08:52;;;;;;;27.65;20.20;;;410.50;1075.20;;;;;;5058283;28;20135;-76
2022/03/03 11:11:22;;;;;;;35.28;22.70;;;435.90;1049.60;;;;;;5066619;28;20027;-74
2022/03/03 11:13:49;;;;;;;28.20;20.70;;;435.80;1075.20;;;;;;5067020;28;20021;-74
2022/03/03 11:16:17;;;;;;;30.58;21.52;;;410.50;1075.20;;;;;;5088526;28;20032;-74
2022/03/03 11:18:43;;;;;;;31.90;20.63;;;435.40;1075.20;;;;;;5065160;28;20024;-75
2022/03/03 11:21:08;;;;;;;34.08;23.20;;;435.60;1075.20;;;;;;5058665;28;20029;-75
2022/03/03 11:23:38;;;;;;;31.05;22.63;;;410.30;1126.40;;;;;;5066611;28;20383;-75
2022/03/03 11:26:04;;;;;;;30.30;22.63;;;410.00;1100.80;;;;;;5062765;28;20032;-74
2022/03/03 11:28:35;;;;;;;31.45;20.33;;;410.00;1100.80;;;;;;5064751;28;20060;-75
2022/03/03 11:31:21;;;;;;;34.42;21.50;;;410.40;1100.80;;;;;;5063192;28;20103;-75
2022/03/03 11:33:50;;;;;;;30.10;21.42;;;435.60;1049.60;;;;;;5063135;28;20074;-74
2022/03/03 11:36:22;;;;;;;27.30;20.35;;;410.40;1075.20;;;;;;5066405;28;20108;-74
2022/03/03 11:39:00;;;;;;;30.13;20.75;;;410.10;1100.80;;;;;;5065175;28;20464;-74
2022/03/03 11:41:47;;;;;;;31.98;21.27;;;410.40;1100.80;;;;;;5066018;28;20470;-74
2022/03/03 11:44:15;;;;;;;31.27;20.27;;;435.50;1075.20;;;;;;5061868;28;20028;-74
2022/03/03 11:46:49;;;;;;;31.67;20.58;;;435.80;1075.20;;;;;;5062889;28;20110;-74
2022/03/03 11:49:20;;;;;;;27.58;19.67;;;435.70;1024.00;;;;;;5059872;28;20361;-74
2022/03/03 11:51:51;;;;;;;32.33;21.45;;;460.90;1024.00;;;;;;5066891;28;20796;-74
2022/03/03 11:54:25;;;;;;;28.48;20.98;;;461.30;998.40;;;;;;5065820;28;20036;-74
2022/03/03 11:57:09;;;;;;;29.88;20.73;;;461.40;1024.00;;;;;;5062086;28;20031;-75
2022/03/03 11:59:48;;;;;;;31.15;21.80;;;410.30;1049.60;;;;;;5066859;28;20028;-75
2022/03/03 12:02:19;;;;;;;40.95;22.60;;;410.50;1075.20;;;;;;5067209;28;20475;-74
2022/03/03 12:04:44;;;;;;;30.33;22.17;;;436.10;998.40;;;;;;5068389;28;20040;-74
2022/03/03 12:07:29;;;;;;;36.30;22.27;;;461.10;1024.00;;;;;;5060827;28;20634;-75
2022/03/03 12:09:59;;;;;;;33.50;22.70;;;435.90;998.40;;;;;;5064376;28;20020;-74
2022/03/03 12:12:44;;;;;;;32.95;20.13;;;435.40;1049.60;;;;;;5066546;28;20063;-74
2022/03/03 12:15:09;;;;;;;30.63;20.65;;;436.10;998.40;;;;;;5066793;28;20017;-74